createdAt,value
2017-07-02T00:00:01.447Z,98682
2017-07-02T00:02:29.526Z,98676
2017-07-02T00:04:57.673Z,98674
2017-07-02T00:07:25.743Z,98681
2017-07-02T00:09:53.808Z,98685
2017-07-02T00:12:21.885Z,98685
2017-07-02T00:14:49.946Z,98684
2017-07-02T00:17:18.037Z,98678
2017-07-02T00:19:46.091Z,98690
2017-07-02T00:22:14.151Z,98686
2017-07-02T00:24:42.222Z,98686
2017-07-02T00:27:10.475Z,98685
2017-07-02T00:29:38.544Z,98690
2017-07-02T00:32:06.602Z,98683
2017-07-02T00:34:34.683Z,98688
2017-07-02T00:37:02.747Z,98692
2017-07-02T00:39:30.811Z,98697
2017-07-02T00:41:58.879Z,98701
2017-07-02T00:44:26.955Z,98700
2017-07-02T00:46:55.023Z,98708
2017-07-02T00:49:23.095Z,98707
2017-07-02T00:51:51.167Z,98710
2017-07-02T00:54:19.234Z,98705
2017-07-02T00:56:47.299Z,98706
2017-07-02T00:59:15.367Z,98704
2017-07-02T01:01:44.076Z,98714
2017-07-02T01:04:12.147Z,98707
2017-07-02T01:06:40.215Z,98712
2017-07-02T01:09:08.288Z,98709
2017-07-02T01:11:36.351Z,98721
2017-07-02T01:14:04.430Z,98719
2017-07-02T01:16:32.495Z,98718
2017-07-02T01:19:00.554Z,98717
2017-07-02T01:21:28.627Z,98724
2017-07-02T01:23:56.691Z,98724
2017-07-02T01:26:24.772Z,98728
2017-07-02T01:28:52.822Z,98733
2017-07-02T01:31:20.892Z,98742
2017-07-02T01:33:48.972Z,98743
2017-07-02T01:36:17.047Z,98735
2017-07-02T01:38:45.114Z,98744
2017-07-02T01:41:13.179Z,98745
2017-07-02T01:43:42.022Z,98750
2017-07-02T01:46:10.097Z,98754
2017-07-02T01:48:38.157Z,98752
2017-07-02T01:51:06.231Z,98750
2017-07-02T01:53:34.304Z,98751
2017-07-02T01:56:02.380Z,98748
2017-07-02T01:58:30.452Z,98749
2017-07-02T02:01:16.344Z,98747
2017-07-02T02:03:44.425Z,98749
2017-07-02T02:06:12.489Z,98751
2017-07-02T02:08:40.558Z,98754
2017-07-02T02:11:08.623Z,98748
2017-07-02T02:13:36.701Z,98748
2017-07-02T02:16:04.779Z,98752
2017-07-02T02:18:32.847Z,98747
2017-07-02T02:21:00.918Z,98750
2017-07-02T02:23:28.993Z,98758
2017-07-02T02:25:57.067Z,98759
2017-07-02T02:28:25.143Z,98764
2017-07-02T02:30:53.224Z,98769
2017-07-02T02:33:21.546Z,98773
2017-07-02T02:35:49.603Z,98763
2017-07-02T02:38:17.675Z,98762
2017-07-02T02:40:46.501Z,98771
2017-07-02T02:43:14.571Z,98777
2017-07-02T02:45:42.630Z,98774
2017-07-02T02:48:10.739Z,98771
2017-07-02T02:50:38.798Z,98770
2017-07-02T02:53:06.861Z,98760
2017-07-02T02:55:34.931Z,98775
2017-07-02T02:58:03.023Z,98775
2017-07-02T03:00:31.104Z,98767
2017-07-02T03:02:59.167Z,98770
2017-07-02T03:05:27.240Z,98782
2017-07-02T03:07:55.303Z,98786
2017-07-02T03:10:23.455Z,98785
2017-07-02T03:12:51.514Z,98792
2017-07-02T03:15:19.591Z,98800
2017-07-02T03:17:47.686Z,98801
2017-07-02T03:20:15.787Z,98798
2017-07-02T03:22:43.871Z,98806
2017-07-02T03:25:12.312Z,98802
2017-07-02T03:27:40.384Z,98821
2017-07-02T03:30:08.443Z,98815
2017-07-02T03:32:36.519Z,98824
2017-07-02T03:35:04.575Z,98824
2017-07-02T03:37:32.635Z,98829
2017-07-02T03:40:01.472Z,98830
2017-07-02T03:42:29.539Z,98834
2017-07-02T03:44:57.608Z,98828
2017-07-02T03:47:25.696Z,98833
2017-07-02T03:49:53.783Z,98841
2017-07-02T03:52:21.834Z,98849
2017-07-02T03:54:49.932Z,98838
2017-07-02T03:57:17.996Z,98844
2017-07-02T03:59:46.063Z,98842
2017-07-02T04:02:14.135Z,98856
2017-07-02T04:04:42.210Z,98846
2017-07-02T04:07:10.283Z,98857
2017-07-02T04:09:38.346Z,98858
2017-07-02T04:12:06.426Z,98859
2017-07-02T04:14:34.495Z,98865
2017-07-02T04:17:02.571Z,98870
2017-07-02T04:19:30.631Z,98873
2017-07-02T04:21:58.691Z,98875
2017-07-02T04:24:26.771Z,98877
2017-07-02T04:26:54.836Z,98876
2017-07-02T04:29:22.909Z,98875
2017-07-02T04:31:50.985Z,98879
2017-07-02T04:34:19.104Z,98890
2017-07-02T04:36:47.160Z,98890
2017-07-02T04:39:15.235Z,98883
2017-07-02T04:41:43.687Z,98889
2017-07-02T04:44:11.774Z,98900
2017-07-02T04:46:39.846Z,98897
2017-07-02T04:49:07.915Z,98894
2017-07-02T04:51:35.994Z,98894
2017-07-02T04:54:04.062Z,98902
2017-07-02T04:56:32.134Z,98902
2017-07-02T04:59:00.213Z,98893
2017-07-02T05:01:28.279Z,98894
2017-07-02T05:03:56.347Z,98894
2017-07-02T05:06:24.427Z,98889
2017-07-02T05:08:52.498Z,98910
2017-07-02T05:11:20.575Z,98907
2017-07-02T05:13:48.635Z,98907
2017-07-02T05:16:16.700Z,98906
2017-07-02T05:18:44.774Z,98913
2017-07-02T05:21:12.837Z,98906
2017-07-02T05:23:40.914Z,98903
2017-07-02T05:26:08.983Z,98901
2017-07-02T05:28:37.055Z,98905
2017-07-02T05:31:05.114Z,98901
2017-07-02T05:33:33.203Z,98912
2017-07-02T05:36:01.275Z,98917
2017-07-02T05:38:29.326Z,98920
2017-07-02T05:40:57.415Z,98918
2017-07-02T05:43:25.488Z,98920
2017-07-02T05:45:53.563Z,98918
2017-07-02T05:48:21.648Z,98930
2017-07-02T05:50:49.722Z,98924
2017-07-02T05:53:17.783Z,98922
2017-07-02T05:55:45.867Z,98928
2017-07-02T05:58:14.024Z,98939
2017-07-02T06:00:42.096Z,98935
2017-07-02T06:03:10.168Z,98937
2017-07-02T06:05:38.234Z,98945
2017-07-02T06:08:06.301Z,98941
2017-07-02T06:10:34.370Z,98944
2017-07-02T06:13:02.444Z,98945
2017-07-02T06:15:32.096Z,98952
2017-07-02T06:18:00.171Z,98953
2017-07-02T06:20:28.227Z,98948
2017-07-02T06:22:56.286Z,98954
2017-07-02T06:25:24.355Z,98954
2017-07-02T06:27:52.431Z,98956
2017-07-02T06:30:20.511Z,98962
2017-07-02T06:32:48.579Z,98950
2017-07-02T06:35:16.644Z,98949
2017-07-02T06:37:44.719Z,98946
2017-07-02T06:40:12.855Z,98946
2017-07-02T06:42:40.919Z,98951
2017-07-02T06:45:08.987Z,98946
2017-07-02T06:47:37.062Z,98943
2017-07-02T06:50:05.115Z,98945
2017-07-02T06:52:33.190Z,98951
2017-07-02T06:55:01.267Z,98952
2017-07-02T06:57:29.351Z,98946
2017-07-02T06:59:57.421Z,98952
2017-07-02T07:02:25.474Z,98955
2017-07-02T07:04:53.555Z,98962
2017-07-02T07:07:21.622Z,98965
2017-07-02T07:09:49.694Z,98966
2017-07-02T07:12:17.767Z,98971
2017-07-02T07:14:45.838Z,98980
2017-07-02T07:17:13.907Z,98984
2017-07-02T07:19:41.991Z,98982
2017-07-02T07:22:11.062Z,98987
2017-07-02T07:24:39.145Z,98990
2017-07-02T07:27:07.219Z,98987
2017-07-02T07:29:35.299Z,98984
2017-07-02T07:32:03.364Z,98986
2017-07-02T07:34:31.432Z,98995
2017-07-02T07:36:59.499Z,98999
2017-07-02T07:39:27.576Z,98996
2017-07-02T07:41:55.647Z,98995
2017-07-02T07:44:23.720Z,98994
2017-07-02T07:46:51.791Z,98997
2017-07-02T07:49:19.868Z,99002
2017-07-02T07:51:47.946Z,98995
2017-07-02T07:54:16.019Z,99001
2017-07-02T07:56:44.074Z,98998
2017-07-02T07:59:12.156Z,98999
2017-07-02T08:01:40.222Z,98994
2017-07-02T08:04:08.299Z,99005
2017-07-02T08:06:36.371Z,99009
2017-07-02T08:09:04.446Z,99014
2017-07-02T08:11:32.516Z,99003
2017-07-02T08:14:00.604Z,99006
2017-07-02T08:16:28.674Z,99013
2017-07-02T08:18:56.746Z,99007
2017-07-02T08:21:24.854Z,99010
2017-07-02T08:23:52.932Z,99009
2017-07-02T08:26:21.002Z,99015
2017-07-02T08:28:49.071Z,99021
2017-07-02T08:31:17.912Z,99018
2017-07-02T08:33:46.004Z,99026
2017-07-02T08:36:14.079Z,99023
2017-07-02T08:38:42.147Z,99026
2017-07-02T08:41:10.227Z,99030
2017-07-02T08:43:38.287Z,99024
2017-07-02T08:46:06.375Z,99027
2017-07-02T08:48:34.436Z,99027
2017-07-02T08:51:02.508Z,99025
2017-07-02T08:53:30.587Z,99023
2017-07-02T08:55:58.654Z,99033
2017-07-02T08:58:26.722Z,99030
2017-07-02T09:00:54.791Z,99030
2017-07-02T09:03:22.871Z,99034
2017-07-02T09:05:50.938Z,99031
2017-07-02T09:08:19.011Z,99040
2017-07-02T09:10:47.094Z,99034
2017-07-02T09:13:15.179Z,99047
2017-07-02T09:15:43.247Z,99044
2017-07-02T09:18:11.311Z,99034
2017-07-02T09:20:40.267Z,99038
2017-07-02T09:23:08.331Z,99034
2017-07-02T09:25:36.406Z,99034
2017-07-02T09:28:04.574Z,99039
2017-07-02T09:30:32.651Z,99043
2017-07-02T09:33:01.806Z,99055
2017-07-02T09:35:30.730Z,99051
2017-07-02T09:37:58.791Z,99059
2017-07-02T09:40:26.887Z,99052
2017-07-02T09:42:54.951Z,99051
2017-07-02T09:45:23.031Z,99056
2017-07-02T09:47:51.101Z,99059
2017-07-02T09:50:19.175Z,99060
2017-07-02T09:52:47.255Z,99063
2017-07-02T09:55:15.328Z,99067
2017-07-02T09:57:43.403Z,99065
2017-07-02T10:00:11.480Z,99069
2017-07-02T10:02:39.650Z,99069
2017-07-02T10:05:07.756Z,99073
2017-07-02T10:07:35.832Z,99069
2017-07-02T10:10:03.903Z,99066
2017-07-02T10:12:32.039Z,99062
2017-07-02T10:15:00.098Z,99074
2017-07-02T10:17:28.179Z,99061
2017-07-02T10:19:56.266Z,99066
2017-07-02T10:22:24.344Z,99063
2017-07-02T10:24:52.431Z,99054
2017-07-02T10:27:20.495Z,99062
2017-07-02T10:29:48.579Z,99055
2017-07-02T10:32:16.649Z,99056
2017-07-02T10:34:44.799Z,99061
2017-07-02T10:37:12.896Z,99060
2017-07-02T10:39:41.785Z,99061
2017-07-02T10:42:09.857Z,99059
2017-07-02T10:44:37.942Z,99060
2017-07-02T10:47:06.778Z,99054
2017-07-02T10:49:34.853Z,99053
2017-07-02T10:52:02.933Z,99043
2017-07-02T10:54:31.125Z,99062
2017-07-02T10:56:59.195Z,99051
2017-07-02T10:59:27.267Z,99060
2017-07-02T11:01:55.354Z,99065
2017-07-02T11:04:23.418Z,99058
2017-07-02T11:06:51.496Z,99058
2017-07-02T11:09:19.686Z,99054
2017-07-02T11:11:47.762Z,99049
2017-07-02T11:14:16.598Z,99053
2017-07-02T11:16:44.671Z,99059
2017-07-02T11:19:12.743Z,99063
2017-07-02T11:21:40.838Z,99064
2017-07-02T11:24:08.938Z,99059
2017-07-02T11:26:36.998Z,99066
2017-07-02T11:29:05.072Z,99061
2017-07-02T11:31:33.134Z,99065
2017-07-02T11:34:01.202Z,99062
2017-07-02T11:36:29.263Z,99064
2017-07-02T11:38:57.353Z,99068
2017-07-02T11:41:25.414Z,99073
2017-07-02T11:43:53.477Z,99071
2017-07-02T11:46:21.547Z,99078
2017-07-02T11:48:49.610Z,99079
2017-07-02T11:51:17.680Z,99080
2017-07-02T11:53:45.747Z,99079
2017-07-02T11:56:13.806Z,99075
2017-07-02T11:58:41.862Z,99078
2017-07-02T12:01:10.698Z,99077
2017-07-02T12:03:38.758Z,99076
2017-07-02T12:06:06.834Z,99076
2017-07-02T12:08:34.903Z,99073
2017-07-02T12:11:02.953Z,99077
2017-07-02T12:13:31.918Z,99080
2017-07-02T12:16:00.003Z,99070
2017-07-02T12:18:28.839Z,99065
2017-07-02T12:20:56.927Z,99071
2017-07-02T12:23:25.015Z,99054
2017-07-02T12:25:53.070Z,99059
2017-07-02T12:28:21.134Z,99051
2017-07-02T12:30:49.193Z,99053
2017-07-02T12:33:17.265Z,99058
2017-07-02T12:35:45.379Z,99064
2017-07-02T12:38:13.447Z,99051
2017-07-02T12:40:41.549Z,99048
2017-07-02T12:43:10.373Z,99048
2017-07-02T12:45:38.450Z,99035
2017-07-02T12:48:06.517Z,99042
2017-07-02T12:50:34.590Z,99044
2017-07-02T12:53:02.657Z,99042
2017-07-02T12:55:30.721Z,99047
2017-07-02T12:57:58.779Z,99052
2017-07-02T13:00:26.867Z,99050
2017-07-02T13:02:54.929Z,99041
2017-07-02T13:05:23.018Z,99047
2017-07-02T13:07:51.095Z,99051
2017-07-02T13:10:19.154Z,99052
2017-07-02T13:12:47.222Z,99059
2017-07-02T13:15:15.287Z,99060
2017-07-02T13:17:43.351Z,99069
2017-07-02T13:20:12.175Z,99064
2017-07-02T13:22:40.260Z,99061
2017-07-02T13:25:08.319Z,99066
2017-07-02T13:27:36.402Z,99069
2017-07-02T13:30:04.463Z,99072
2017-07-02T13:32:32.531Z,99072
2017-07-02T13:35:00.631Z,99077
2017-07-02T13:37:28.703Z,99087
2017-07-02T13:39:56.776Z,99078
2017-07-02T13:42:24.862Z,99075
2017-07-02T13:44:52.939Z,99079
2017-07-02T13:47:21.016Z,99085
2017-07-02T13:49:49.103Z,99099
2017-07-02T13:52:17.947Z,99079
2017-07-02T13:54:46.007Z,99089
2017-07-02T13:57:14.092Z,99082
2017-07-02T13:59:42.155Z,99090
2017-07-02T14:02:10.236Z,99099
2017-07-02T14:04:38.299Z,99101
2017-07-02T14:07:06.371Z,99098
2017-07-02T14:09:34.443Z,99098
2017-07-02T14:12:02.511Z,99098
2017-07-02T14:14:30.584Z,99103
2017-07-02T14:16:58.760Z,99100
2017-07-02T14:19:26.816Z,99106
2017-07-02T14:21:54.905Z,99102
2017-07-02T14:24:22.987Z,99095
2017-07-02T14:26:51.050Z,99094
2017-07-02T14:29:19.150Z,99100
2017-07-02T14:31:47.215Z,99094
2017-07-02T14:34:15.297Z,99102
2017-07-02T14:36:43.354Z,99102
2017-07-02T14:39:11.430Z,99095
2017-07-02T14:41:39.488Z,99103
2017-07-02T14:44:07.569Z,99101
2017-07-02T14:46:36.766Z,99101
2017-07-02T14:49:05.026Z,99099
2017-07-02T14:51:33.495Z,99103
2017-07-02T14:54:01.551Z,99113
2017-07-02T14:56:29.768Z,99102
2017-07-02T14:58:57.831Z,99106
2017-07-02T15:01:25.916Z,99098
2017-07-02T15:03:53.988Z,99109
2017-07-02T15:06:22.206Z,99106
2017-07-02T15:08:50.275Z,99102
2017-07-02T15:11:18.355Z,99104
2017-07-02T15:13:47.187Z,99099
2017-07-02T15:16:15.258Z,99100
2017-07-02T15:18:43.361Z,99110
2017-07-02T15:21:11.490Z,99098
2017-07-02T15:23:39.562Z,99102
2017-07-02T15:26:07.726Z,99108
2017-07-02T15:28:35.989Z,99110
2017-07-02T15:31:04.844Z,99110
2017-07-02T15:33:32.916Z,99106
2017-07-02T15:36:00.988Z,99102
2017-07-02T15:38:29.982Z,99106
2017-07-02T15:40:58.059Z,99110
2017-07-02T15:43:26.142Z,99109
2017-07-02T15:45:54.211Z,99103
2017-07-02T15:48:22.276Z,99100
2017-07-02T15:50:50.346Z,99106
2017-07-02T15:53:18.417Z,99111
2017-07-02T15:55:46.486Z,99106
2017-07-02T15:58:14.549Z,99106
2017-07-02T16:00:42.624Z,99107
2017-07-02T16:03:10.691Z,99110
2017-07-02T16:05:38.766Z,99108
2017-07-02T16:08:06.904Z,99116
2017-07-02T16:10:35.002Z,99113
2017-07-02T16:13:03.076Z,99111
2017-07-02T16:15:31.161Z,99109
2017-07-02T16:17:59.239Z,99119
2017-07-02T16:20:27.319Z,99116
2017-07-02T16:22:55.390Z,99117
2017-07-02T16:25:23.459Z,99122
2017-07-02T16:27:51.555Z,99115
2017-07-02T16:30:19.630Z,99125
2017-07-02T16:32:47.743Z,99119
2017-07-02T16:35:15.857Z,99121
2017-07-02T16:37:43.942Z,99113
2017-07-02T16:40:12.026Z,99121
2017-07-02T16:42:40.101Z,99120
2017-07-02T16:45:08.952Z,99119
2017-07-02T16:47:37.059Z,99119
2017-07-02T16:50:05.904Z,99125
2017-07-02T16:52:33.983Z,99122
2017-07-02T16:55:02.100Z,99121
2017-07-02T16:57:30.170Z,99124
2017-07-02T16:59:59.020Z,99129
2017-07-02T17:02:27.083Z,99134
2017-07-02T17:04:55.158Z,99126
2017-07-02T17:07:23.227Z,99155
2017-07-02T17:09:51.327Z,99143
2017-07-02T17:12:19.399Z,99148
2017-07-02T17:14:47.468Z,99152
2017-07-02T17:17:15.551Z,99152
2017-07-02T17:19:43.633Z,99158
2017-07-02T17:22:11.706Z,99175
2017-07-02T17:24:39.786Z,99188
2017-07-02T17:27:08.650Z,99196
2017-07-02T17:29:36.723Z,99194
2017-07-02T17:32:04.833Z,99190
2017-07-02T17:34:32.925Z,99201
2017-07-02T17:37:01.012Z,99209
2017-07-02T17:39:29.311Z,99217
2017-07-02T17:41:57.383Z,99217
2017-07-02T17:44:25.465Z,99226
2017-07-02T17:46:53.547Z,99226
2017-07-02T17:49:21.637Z,99220
2017-07-02T17:51:50.500Z,99204
2017-07-02T17:54:18.595Z,99207
2017-07-02T17:56:46.668Z,99204
2017-07-02T17:59:14.746Z,99201
2017-07-02T18:01:44.066Z,99206
2017-07-02T18:04:12.903Z,99211
2017-07-02T18:06:40.981Z,99209
2017-07-02T18:09:09.056Z,99219
2017-07-02T18:11:37.132Z,99213
2017-07-02T18:14:05.246Z,99215
2017-07-02T18:16:33.342Z,99211
2017-07-02T18:19:01.433Z,99223
2017-07-02T18:21:29.542Z,99221
2017-07-02T18:23:58.412Z,99211
2017-07-02T18:26:26.491Z,99213
2017-07-02T18:28:54.562Z,99219
2017-07-02T18:31:22.646Z,99222
2017-07-02T18:33:50.707Z,99224
2017-07-02T18:36:18.778Z,99219
2017-07-02T18:38:46.899Z,99230
2017-07-02T18:41:15.178Z,99229
2017-07-02T18:43:43.372Z,99220
2017-07-02T18:46:11.508Z,99220
2017-07-02T18:48:39.628Z,99220
2017-07-02T18:51:07.698Z,99226
2017-07-02T18:53:35.807Z,99216
2017-07-02T18:56:04.649Z,99220
2017-07-02T18:58:32.734Z,99217
2017-07-02T19:01:00.835Z,99222
2017-07-02T19:03:30.214Z,99227
2017-07-02T19:05:58.312Z,99229
2017-07-02T19:08:26.401Z,99236
2017-07-02T19:10:54.496Z,99233
2017-07-02T19:13:22.624Z,99248
2017-07-02T19:15:50.703Z,99244
2017-07-02T19:18:18.893Z,99246
2017-07-02T19:20:47.085Z,99238
2017-07-02T19:23:15.187Z,99244
2017-07-02T19:25:43.257Z,99243
2017-07-02T19:28:11.318Z,99256
2017-07-02T19:30:39.404Z,99246
2017-07-02T19:33:07.475Z,99259
2017-07-02T19:35:35.550Z,99257
2017-07-02T19:38:03.622Z,99255
2017-07-02T19:40:31.695Z,99262
2017-07-02T19:42:59.764Z,99250
2017-07-02T19:45:27.838Z,99250
2017-07-02T19:47:55.909Z,99248
2017-07-02T19:50:23.995Z,99256
2017-07-02T19:52:52.054Z,99262
2017-07-02T19:55:20.115Z,99256
2017-07-02T19:57:48.182Z,99256
2017-07-02T20:00:16.246Z,99250
2017-07-02T20:02:44.320Z,99261
2017-07-02T20:05:12.379Z,99255
2017-07-02T20:07:40.451Z,99261
2017-07-02T20:10:09.303Z,99272
2017-07-02T20:12:37.374Z,99269
2017-07-02T20:15:05.444Z,99274
2017-07-02T20:17:33.515Z,99277
2017-07-02T20:20:01.583Z,99284
2017-07-02T20:22:29.667Z,99289
2017-07-02T20:24:57.734Z,99297
2017-07-02T20:27:25.806Z,99304
2017-07-02T20:29:53.878Z,99296
2017-07-02T20:32:21.954Z,99291
2017-07-02T20:34:50.022Z,99306
2017-07-02T20:37:18.094Z,99307
2017-07-02T20:39:46.193Z,99309
2017-07-02T20:42:14.259Z,99305
2017-07-02T20:44:42.327Z,99307
2017-07-02T20:47:10.386Z,99315
2017-07-02T20:49:38.479Z,99313
2017-07-02T20:52:06.578Z,99311
2017-07-02T20:54:35.402Z,99319
2017-07-02T20:57:03.497Z,99308
2017-07-02T20:59:31.559Z,99316
2017-07-02T21:01:59.659Z,99312
2017-07-02T21:04:27.731Z,99310
2017-07-02T21:06:55.811Z,99310
2017-07-02T21:09:23.874Z,99311
2017-07-02T21:11:51.950Z,99314
2017-07-02T21:14:20.056Z,99320
2017-07-02T21:16:48.136Z,99324
2017-07-02T21:19:16.199Z,99315
2017-07-02T21:21:45.051Z,99319
2017-07-02T21:24:13.123Z,99315
2017-07-02T21:26:41.195Z,99325
2017-07-02T21:29:09.272Z,99328
2017-07-02T21:31:37.338Z,99320
2017-07-02T21:34:05.416Z,99326
2017-07-02T21:36:33.487Z,99327
2017-07-02T21:39:01.555Z,99324
2017-07-02T21:41:29.636Z,99326
2017-07-02T21:43:57.727Z,99320
2017-07-02T21:46:26.554Z,99334
2017-07-02T21:48:54.627Z,99334
2017-07-02T21:51:22.699Z,99332
2017-07-02T21:53:50.770Z,99332
2017-07-02T21:56:18.847Z,99335
2017-07-02T21:58:46.951Z,99330
2017-07-02T22:01:15.027Z,99331
2017-07-02T22:03:43.091Z,99343
2017-07-02T22:06:11.260Z,99330
2017-07-02T22:08:39.323Z,99338
2017-07-02T22:11:07.396Z,99333
2017-07-02T22:13:35.450Z,99333
2017-07-02T22:16:03.509Z,99343
2017-07-02T22:18:31.582Z,99348
2017-07-02T22:20:59.654Z,99340
2017-07-02T22:23:27.741Z,99340
2017-07-02T22:25:55.813Z,99346
2017-07-02T22:28:23.887Z,99342
2017-07-02T22:30:51.958Z,99349
2017-07-02T22:33:20.036Z,99341
2017-07-02T22:35:48.105Z,99347
2017-07-02T22:38:16.186Z,99345
2017-07-02T22:40:44.247Z,99350
2017-07-02T22:43:12.386Z,99350
2017-07-02T22:45:41.224Z,99350
2017-07-02T22:48:09.291Z,99345
2017-07-02T22:50:37.359Z,99342
2017-07-02T22:53:05.428Z,99345
2017-07-02T22:55:33.511Z,99348
2017-07-02T22:58:01.618Z,99362
2017-07-02T23:00:29.691Z,99364
2017-07-02T23:02:57.759Z,99366
2017-07-02T23:05:25.835Z,99367
2017-07-02T23:07:53.903Z,99370
2017-07-02T23:10:21.975Z,99372
2017-07-02T23:12:50.048Z,99373
2017-07-02T23:15:18.102Z,99375
2017-07-02T23:17:46.180Z,99375
2017-07-02T23:20:14.243Z,99372
2017-07-02T23:22:42.325Z,99373
2017-07-02T23:25:10.411Z,99373
2017-07-02T23:27:38.486Z,99380
2017-07-02T23:30:06.550Z,99373
2017-07-02T23:32:34.627Z,99374
2017-07-02T23:35:02.694Z,99378
2017-07-02T23:37:30.767Z,99373
2017-07-02T23:39:58.831Z,99370
2017-07-02T23:42:26.900Z,99378
2017-07-02T23:44:54.979Z,99380
2017-07-02T23:47:23.048Z,99386
2017-07-02T23:49:51.134Z,99380
2017-07-02T23:52:19.202Z,99377
2017-07-02T23:54:47.275Z,99379
2017-07-02T23:57:15.371Z,99384
2017-07-02T23:59:44.260Z,99386
